createdAt,value
2023-04-01T00:02:06.899Z,8.67
2023-04-01T00:04:50.087Z,8.62
2023-04-01T00:07:23.444Z,8.59
2023-04-01T00:09:57.558Z,8.57
2023-04-01T00:12:30.489Z,8.57
2023-04-01T00:15:01.967Z,8.58
2023-04-01T00:17:35.050Z,8.52
2023-04-01T00:20:06.994Z,8.52
2023-04-01T00:22:39.873Z,8.49
2023-04-01T00:25:13.173Z,8.46
2023-04-01T00:27:46.187Z,8.42
2023-04-01T00:30:20.136Z,8.38
2023-04-01T00:32:54.058Z,8.29
2023-04-01T00:35:22.266Z,8.22
2023-04-01T00:37:50.631Z,8.16
2023-04-01T00:40:39.232Z,8.06
2023-04-01T00:43:22.936Z,8.00
2023-04-01T00:45:54.305Z,7.92
2023-04-01T00:48:25.103Z,7.90
2023-04-01T00:51:25.873Z,7.86
2023-04-01T00:53:57.991Z,7.85
2023-04-01T00:56:36.910Z,7.84
2023-04-01T00:59:13.590Z,7.85
2023-04-01T01:01:47.185Z,7.79
2023-04-01T01:04:36.218Z,7.80
2023-04-01T01:07:22.598Z,7.79
2023-04-01T01:10:08.994Z,7.79
2023-04-01T01:12:48.682Z,7.74
2023-04-01T01:15:34.841Z,7.68
2023-04-01T01:18:17.093Z,7.64
2023-04-01T01:21:13.323Z,7.62
2023-04-01T01:24:14.876Z,7.59
2023-04-01T01:26:43.205Z,7.59
2023-04-01T01:30:09.705Z,7.58
2023-04-01T01:33:15.181Z,7.56
2023-04-01T01:35:48.189Z,7.51
2023-04-01T01:38:18.551Z,7.54
2023-04-01T01:40:58.955Z,7.54
2023-04-01T01:43:33.188Z,7.55
2023-04-01T01:46:03.252Z,7.54
2023-04-01T01:48:37.153Z,7.53
2023-04-01T01:51:07.679Z,7.47
2023-04-01T01:53:40.545Z,7.48
2023-04-01T01:56:09.488Z,7.49
2023-04-01T01:58:56.398Z,7.51
2023-04-01T02:01:29.807Z,7.53
2023-04-01T02:03:57.949Z,7.57
2023-04-01T02:06:28.399Z,7.49
2023-04-01T02:08:59.228Z,7.52
2023-04-01T02:11:56.146Z,7.50
2023-04-01T02:14:56.611Z,7.53
2023-04-01T02:17:32.348Z,7.52
2023-04-01T02:20:23.445Z,7.52
2023-04-01T02:22:53.977Z,7.54
2023-04-01T02:25:41.428Z,7.53
2023-04-01T02:28:09.611Z,7.53
2023-04-01T02:30:45.568Z,7.53
2023-04-01T02:33:14.094Z,7.54
2023-04-01T02:35:46.812Z,7.57
2023-04-01T02:38:17.970Z,7.58
2023-04-01T02:41:00.271Z,7.61
2023-04-01T02:43:28.715Z,7.62
2023-04-01T02:46:09.152Z,7.58
2023-04-01T02:48:49.527Z,7.59
2023-04-01T02:51:22.830Z,7.60
2023-04-01T02:53:55.658Z,7.59
2023-04-01T02:56:29.550Z,7.58
2023-04-01T02:59:00.732Z,7.60
2023-04-01T03:01:33.999Z,7.62
2023-04-01T03:04:05.385Z,7.60
2023-04-01T03:06:41.056Z,7.62
2023-04-01T03:09:09.255Z,7.64
2023-04-01T03:11:38.086Z,7.65
2023-04-01T03:14:12.047Z,7.67
2023-04-01T03:16:46.237Z,7.66
2023-04-01T03:19:14.428Z,7.65
2023-04-01T03:21:47.423Z,7.65
2023-04-01T03:24:20.258Z,7.58
2023-04-01T03:26:53.400Z,7.60
2023-04-01T03:29:28.686Z,7.61
2023-04-01T03:32:02.244Z,7.62
2023-04-01T03:34:35.482Z,7.62
2023-04-01T03:37:04.620Z,7.64
2023-04-01T03:39:57.843Z,7.65
2023-04-01T03:42:33.272Z,7.62
2023-04-01T03:45:14.744Z,7.66
2023-04-01T03:47:57.817Z,7.67
2023-04-01T03:50:25.909Z,7.69
2023-04-01T03:53:04.525Z,7.69
2023-04-01T03:55:37.375Z,7.71
2023-04-01T03:58:10.532Z,7.72
2023-04-01T04:00:38.564Z,7.75
2023-04-01T04:03:11.853Z,7.79
2023-04-01T04:05:40.128Z,7.79
2023-04-01T04:08:12.724Z,7.79
2023-04-01T04:10:40.994Z,7.79
2023-04-01T04:13:16.919Z,7.81
2023-04-01T04:15:45.283Z,7.81
2023-04-01T04:18:27.271Z,7.80
2023-04-01T04:21:01.037Z,7.80
2023-04-01T04:23:33.923Z,7.81
2023-04-01T04:26:14.187Z,7.79
2023-04-01T04:28:48.400Z,7.78
2023-04-01T04:31:25.193Z,7.79
2023-04-01T04:33:53.706Z,7.82
2023-04-01T04:36:22.322Z,7.81
2023-04-01T04:39:15.824Z,7.78
2023-04-01T04:41:44.239Z,7.81
2023-04-01T04:44:12.568Z,7.79
2023-04-01T04:46:41.712Z,7.80
2023-04-01T04:49:10.008Z,7.80
2023-04-01T04:51:42.927Z,7.77
2023-04-01T04:54:16.291Z,7.66
2023-04-01T04:56:58.741Z,7.65
2023-04-01T04:59:32.617Z,7.62
2023-04-01T05:02:22.216Z,7.56
2023-04-01T05:04:53.390Z,7.55
2023-04-01T05:07:26.300Z,7.50
2023-04-01T05:09:59.964Z,7.48
2023-04-01T05:12:41.924Z,7.47
2023-04-01T05:15:20.979Z,7.47
2023-04-01T05:17:54.085Z,7.50
2023-04-01T05:20:28.085Z,7.49
2023-04-01T05:23:09.929Z,7.48
2023-04-01T05:25:40.590Z,7.46
2023-04-01T05:28:08.983Z,7.46
2023-04-01T05:30:44.070Z,7.41
2023-04-01T05:33:17.031Z,7.41
2023-04-01T05:35:47.962Z,7.41
2023-04-01T05:38:16.391Z,7.40
2023-04-01T05:40:49.997Z,7.40
2023-04-01T05:43:30.393Z,7.44
2023-04-01T05:46:02.193Z,7.47
2023-04-01T05:48:30.539Z,7.48
2023-04-01T05:51:03.286Z,7.49
2023-04-01T05:53:31.782Z,7.52
2023-04-01T05:56:01.081Z,7.54
2023-04-01T05:58:34.356Z,7.55
2023-04-01T06:01:10.254Z,7.58
2023-04-01T06:04:13.517Z,7.64
2023-04-01T06:07:04.320Z,7.67
2023-04-01T06:09:38.405Z,7.63
2023-04-01T06:12:20.532Z,7.66
2023-04-01T06:15:00.858Z,7.66
2023-04-01T06:18:04.679Z,7.67
2023-04-01T06:20:44.819Z,7.66
2023-04-01T06:23:26.666Z,7.70
2023-04-01T06:26:43.281Z,7.69
2023-04-01T06:29:42.167Z,7.75
2023-04-01T06:32:38.247Z,7.79
2023-04-01T06:35:55.525Z,7.96
2023-04-01T06:38:56.111Z,8.43
2023-04-01T06:41:45.024Z,8.43
2023-04-01T06:44:51.909Z,8.38
2023-04-01T06:48:00.742Z,8.38
2023-04-01T06:50:40.515Z,8.27
2023-04-01T06:53:43.836Z,8.29
2023-04-01T06:56:16.563Z,8.40
2023-04-01T06:58:52.508Z,8.39
2023-04-01T07:01:48.615Z,8.39
2023-04-01T07:04:28.628Z,8.40
2023-04-01T07:07:11.571Z,8.42
2023-04-01T07:09:46.007Z,8.51
2023-04-01T07:12:53.137Z,8.56
2023-04-01T07:15:57.984Z,8.67
2023-04-01T07:18:45.275Z,8.67
2023-04-01T07:21:23.208Z,8.68
2023-04-01T07:23:56.011Z,8.75
2023-04-01T07:26:26.073Z,8.76
2023-04-01T07:29:19.728Z,8.81
2023-04-01T07:32:23.516Z,8.80
2023-04-01T07:34:58.764Z,8.91
2023-04-01T07:37:38.930Z,8.93
2023-04-01T07:40:13.821Z,9.02
2023-04-01T07:43:05.594Z,8.96
2023-04-01T07:46:10.954Z,9.01
2023-04-01T07:48:53.738Z,9.00
2023-04-01T07:54:45.185Z,9.08
2023-04-01T07:57:31.581Z,9.13
2023-04-01T08:00:07.005Z,9.17
2023-04-01T08:03:00.127Z,9.17
2023-04-01T08:05:36.726Z,9.26
2023-04-01T08:08:41.478Z,9.22
2023-04-01T08:11:24.800Z,9.40
2023-04-01T08:14:06.837Z,9.41
2023-04-01T08:17:01.144Z,9.42
2023-04-01T08:19:48.061Z,9.37
2023-04-01T08:22:38.529Z,9.36
2023-04-01T08:25:27.693Z,9.39
2023-04-01T08:28:18.771Z,9.14
2023-04-01T08:31:01.815Z,9.17
2023-04-01T08:33:37.437Z,9.17
2023-04-01T08:36:13.975Z,9.06
2023-04-01T08:39:02.135Z,9.07
2023-04-01T08:41:54.917Z,9.03
2023-04-01T08:44:39.574Z,8.97
2023-04-01T08:47:25.579Z,9.00
2023-04-01T08:50:18.551Z,8.87
2023-04-01T08:52:58.151Z,8.88
2023-04-01T08:55:48.351Z,8.97
2023-04-01T08:58:44.391Z,8.97
2023-04-01T09:01:49.403Z,8.92
2023-04-01T09:04:35.584Z,8.90
2023-04-01T09:07:10.946Z,8.79
2023-04-01T09:10:19.583Z,8.83
2023-04-01T09:13:02.723Z,8.83
2023-04-01T09:15:58.131Z,8.87
2023-04-01T09:18:29.147Z,8.81
2023-04-01T09:21:12.621Z,8.76
2023-04-01T09:24:09.008Z,8.72
2023-04-01T09:26:49.690Z,8.65
2023-04-01T09:29:28.752Z,8.67
2023-04-01T09:32:25.949Z,8.71
2023-04-01T09:35:08.618Z,8.75
2023-04-01T09:37:38.849Z,8.77
2023-04-01T09:40:51.222Z,8.72
2023-04-01T09:43:45.455Z,8.58
2023-04-01T09:46:26.198Z,8.60
2023-04-01T09:49:26.253Z,8.63
2023-04-01T09:52:20.610Z,8.65
2023-04-01T09:55:12.387Z,8.71
2023-04-01T09:58:18.618Z,8.77
2023-04-01T10:01:08.049Z,8.78
2023-04-01T10:03:40.524Z,8.78
2023-04-01T10:06:26.675Z,8.82
2023-04-01T10:09:30.041Z,8.93
2023-04-01T10:12:36.052Z,9.00
2023-04-01T10:15:35.409Z,8.90
2023-04-01T10:18:11.987Z,8.93
2023-04-01T10:20:56.730Z,8.86
2023-04-01T10:23:52.977Z,9.00
2023-04-01T10:26:48.968Z,9.10
2023-04-01T10:29:35.362Z,9.12
2023-04-01T10:32:15.219Z,9.20
2023-04-01T10:35:11.026Z,9.24
2023-04-01T10:38:39.798Z,9.27
2023-04-01T10:41:46.398Z,9.35
2023-04-01T10:44:56.029Z,9.43
2023-04-01T10:47:50.324Z,9.44
2023-04-01T10:50:26.681Z,9.54
2023-04-01T10:53:00.521Z,9.56
2023-04-01T10:58:57.100Z,9.70
2023-04-01T11:01:50.634Z,9.73
2023-04-01T11:04:50.416Z,9.81
2023-04-01T11:07:30.423Z,9.84
2023-04-01T11:10:29.321Z,9.92
2023-04-01T11:13:12.697Z,9.98
2023-04-01T11:15:54.161Z,10.04
2023-04-01T11:18:40.854Z,10.09
2023-04-01T11:21:36.632Z,10.27
2023-04-01T11:24:23.144Z,10.34
2023-04-01T11:27:19.563Z,10.46
2023-04-01T11:30:00.167Z,10.48
2023-04-01T11:32:40.231Z,10.56
2023-04-01T11:35:42.499Z,10.63
2023-04-01T11:38:35.263Z,10.58
2023-04-01T11:41:31.167Z,10.50
2023-04-01T11:44:21.000Z,10.34
2023-04-01T11:47:10.352Z,10.45
2023-04-01T11:49:47.515Z,10.43
2023-04-01T11:52:48.966Z,10.50
2023-04-01T11:55:44.289Z,10.58
2023-04-01T11:58:35.043Z,10.70
2023-04-01T12:01:27.742Z,10.81
2023-04-01T12:04:17.535Z,10.93
2023-04-01T12:07:03.728Z,10.85
2023-04-01T12:09:56.799Z,10.93
2023-04-01T12:12:58.066Z,10.91
2023-04-01T12:15:55.306Z,11.02
2023-04-01T12:18:44.473Z,11.02
2023-04-01T12:21:28.904Z,11.01
2023-04-01T12:24:27.531Z,11.19
2023-04-01T12:27:21.693Z,11.30
2023-04-01T12:30:11.460Z,11.21
2023-04-01T12:33:09.471Z,11.20
2023-04-01T12:36:22.052Z,11.01
2023-04-01T12:39:13.144Z,10.84
2023-04-01T12:42:18.175Z,10.97
2023-04-01T12:45:23.137Z,10.95
2023-04-01T12:48:14.750Z,10.97
2023-04-01T12:50:54.598Z,11.26
2023-04-01T12:53:36.382Z,11.80
2023-04-01T12:56:17.254Z,11.88
2023-04-01T12:59:06.488Z,11.89
2023-04-01T13:02:02.624Z,11.99
2023-04-01T13:04:48.304Z,11.81
2023-04-01T13:07:24.999Z,11.67
2023-04-01T13:10:20.095Z,11.60
2023-04-01T13:13:25.824Z,11.51
2023-04-01T13:16:11.128Z,11.30
2023-04-01T13:18:54.510Z,11.12
2023-04-01T13:21:34.796Z,11.07
2023-04-01T13:24:21.006Z,10.89
2023-04-01T13:27:07.372Z,10.86
2023-04-01T13:29:43.912Z,10.78
2023-04-01T13:32:42.965Z,10.54
2023-04-01T13:35:27.363Z,10.66
2023-04-01T13:38:35.860Z,10.56
2023-04-01T13:41:27.892Z,10.67
2023-04-01T13:44:21.712Z,10.75
2023-04-01T13:47:20.443Z,10.80
2023-04-01T13:50:06.686Z,10.78
2023-04-01T13:53:02.001Z,10.79
2023-04-01T13:55:36.396Z,10.73
2023-04-01T13:58:25.200Z,10.77
2023-04-01T14:01:02.661Z,10.78
2023-04-01T14:03:45.547Z,10.75
2023-04-01T14:06:29.420Z,10.74
2023-04-01T14:09:12.413Z,10.79
2023-04-01T14:11:54.883Z,10.84
2023-04-01T14:14:53.935Z,10.80
2023-04-01T14:17:40.091Z,10.82
2023-04-01T14:20:43.185Z,10.78
2023-04-01T14:24:02.442Z,10.79
2023-04-01T14:27:23.911Z,10.73
2023-04-01T14:30:19.937Z,10.71
2023-04-01T14:33:02.898Z,10.71
2023-04-01T14:35:44.802Z,10.74
2023-04-01T14:38:27.496Z,10.77
2023-04-01T14:41:18.278Z,10.82
2023-04-01T14:44:18.778Z,10.84
2023-04-01T14:47:02.709Z,10.85
2023-04-01T14:49:38.950Z,10.81
2023-04-01T14:52:36.738Z,10.82
2023-04-01T14:55:27.193Z,10.64
2023-04-01T14:58:10.663Z,10.54
2023-04-01T15:01:09.462Z,10.55
2023-04-01T15:03:43.804Z,10.55
2023-04-01T15:06:26.670Z,10.66
2023-04-01T15:08:57.862Z,10.74
2023-04-01T15:11:42.472Z,10.79
2023-04-01T15:14:22.609Z,10.77
2023-04-01T15:17:13.074Z,10.80
2023-04-01T15:19:56.345Z,10.72
2023-04-01T15:22:32.082Z,10.67
2023-04-01T15:25:25.318Z,10.64
2023-04-01T15:28:14.829Z,10.54
2023-04-01T15:31:25.541Z,10.30
2023-04-01T15:34:25.493Z,10.20
2023-04-01T15:37:17.273Z,9.92
2023-04-01T15:40:00.351Z,9.92
2023-04-01T15:43:02.123Z,9.93
2023-04-01T15:46:03.604Z,9.91
2023-04-01T15:49:05.653Z,9.89
2023-04-01T15:51:51.354Z,9.92
2023-04-01T15:54:44.636Z,9.88
2023-04-01T15:57:43.125Z,9.94
2023-04-01T16:00:32.649Z,9.90
2023-04-01T16:03:42.987Z,9.92
2023-04-01T16:06:17.329Z,9.92
2023-04-01T16:09:14.216Z,9.98
2023-04-01T16:11:48.311Z,9.98
2023-04-01T16:14:38.525Z,10.03
2023-04-01T16:17:31.498Z,10.04
2023-04-01T16:20:48.502Z,10.07
2023-04-01T16:23:29.882Z,10.03
2023-04-01T16:26:12.520Z,10.03
2023-04-01T16:29:27.099Z,10.01
2023-04-01T16:32:00.448Z,10.07
2023-04-01T16:34:57.658Z,10.06
2023-04-01T16:37:50.692Z,10.10
2023-04-01T16:40:37.529Z,10.15
2023-04-01T16:43:11.684Z,10.18
2023-04-01T16:46:00.151Z,10.15
2023-04-01T16:48:56.448Z,10.14
2023-04-01T16:51:48.983Z,10.18
2023-04-01T16:54:32.113Z,10.17
2023-04-01T16:57:26.886Z,10.13
2023-04-01T17:00:29.965Z,10.16
2023-04-01T17:03:19.722Z,10.19
2023-04-01T17:06:00.784Z,10.22
2023-04-01T17:08:57.998Z,10.22
2023-04-01T17:12:01.847Z,10.22
2023-04-01T17:14:51.627Z,10.22
2023-04-01T17:18:04.796Z,10.10
2023-04-01T17:20:49.064Z,9.99
2023-04-01T17:23:42.134Z,9.92
2023-04-01T17:26:41.365Z,9.92
2023-04-01T17:29:20.928Z,9.84
2023-04-01T17:31:56.263Z,9.83
2023-04-01T17:34:45.285Z,9.82
2023-04-01T17:37:44.471Z,9.84
2023-04-01T17:40:36.967Z,9.87
2023-04-01T17:43:38.675Z,9.85
2023-04-01T17:47:12.590Z,9.85
2023-04-01T17:50:15.149Z,9.88
2023-04-01T17:53:06.988Z,9.88
2023-04-01T17:55:53.487Z,9.88
2023-04-01T17:58:38.410Z,9.87
2023-04-01T18:01:34.038Z,9.81
2023-04-01T18:04:04.146Z,9.81
2023-04-01T18:07:02.878Z,9.82
2023-04-01T18:09:52.827Z,9.82
2023-04-01T18:13:06.275Z,9.81
2023-04-01T18:16:05.977Z,9.75
2023-04-01T18:19:05.047Z,9.77
2023-04-01T18:21:50.986Z,9.77
2023-04-01T18:24:27.985Z,9.76
2023-04-01T18:27:20.722Z,9.73
2023-04-01T18:30:01.513Z,9.70
2023-04-01T18:32:52.703Z,9.64
2023-04-01T18:35:30.679Z,9.61
2023-04-01T18:38:37.712Z,9.59
2023-04-01T18:41:18.179Z,9.53
2023-04-01T18:44:19.932Z,9.54
2023-04-01T18:47:18.315Z,9.54
2023-04-01T18:50:01.703Z,9.47
2023-04-01T18:52:44.334Z,9.44
2023-04-01T18:55:32.542Z,9.43
2023-04-01T18:58:25.993Z,9.42
2023-04-01T19:01:13.140Z,9.41
2023-04-01T19:04:09.977Z,9.40
2023-04-01T19:07:03.055Z,9.40
2023-04-01T19:09:52.286Z,9.40
2023-04-01T19:12:49.341Z,9.36
2023-04-01T19:15:31.406Z,9.35
2023-04-01T19:18:18.323Z,9.32
2023-04-01T19:21:15.024Z,9.31
2023-04-01T19:26:52.931Z,9.30
2023-04-01T19:29:38.937Z,9.29
2023-04-01T19:32:55.868Z,9.23
2023-04-01T19:35:57.908Z,9.20
2023-04-01T19:39:05.000Z,9.16
2023-04-01T19:41:57.925Z,9.13
2023-04-01T19:44:58.542Z,9.09
2023-04-01T19:47:51.623Z,9.04
2023-04-01T19:50:50.052Z,8.98
2023-04-01T19:53:36.923Z,8.91
2023-04-01T19:56:26.544Z,8.84
2023-04-01T19:59:29.359Z,8.84
2023-04-01T20:02:37.227Z,8.88
2023-04-01T20:05:53.292Z,8.91
2023-04-01T20:09:01.128Z,8.93
2023-04-01T20:12:07.858Z,8.95
2023-04-01T20:14:58.879Z,8.95
2023-04-01T20:17:29.268Z,8.94
2023-04-01T20:20:17.988Z,8.94
2023-04-01T20:22:51.450Z,8.90
2023-04-01T20:25:46.250Z,8.92
2023-04-01T20:28:40.739Z,8.91
2023-04-01T20:31:27.471Z,8.88
2023-04-01T20:34:13.644Z,8.86
2023-04-01T20:40:49.258Z,8.87
2023-04-01T20:43:36.306Z,8.85
2023-04-01T20:46:19.360Z,8.86
2023-04-01T20:49:06.535Z,8.83
2023-04-01T20:51:47.736Z,8.81
2023-04-01T20:54:40.877Z,8.83
2023-04-01T20:57:24.682Z,8.82
2023-04-01T21:00:36.069Z,8.81
2023-04-01T21:07:13.492Z,8.80
2023-04-01T21:10:10.513Z,8.76
2023-04-01T21:13:06.492Z,8.76
2023-04-01T21:16:07.797Z,8.74
2023-04-01T21:18:57.452Z,8.74
2023-04-01T21:21:54.130Z,8.70
2023-04-01T21:25:09.099Z,8.70
2023-04-01T21:34:52.664Z,8.60
2023-04-01T21:37:47.437Z,8.49
2023-04-01T21:40:36.997Z,8.48
2023-04-01T21:43:42.494Z,8.50
2023-04-01T21:47:02.869Z,8.45
2023-04-01T21:49:49.501Z,8.44
2023-04-01T21:52:26.766Z,8.41
2023-04-01T21:55:31.859Z,8.44
2023-04-01T21:58:26.914Z,8.45
2023-04-01T22:01:18.640Z,8.44
2023-04-01T22:04:12.448Z,8.43
2023-04-01T22:06:46.458Z,8.43
2023-04-01T22:09:47.334Z,8.42
2023-04-01T22:12:29.478Z,8.43
2023-04-01T22:15:47.327Z,8.43
2023-04-01T22:19:00.531Z,8.40
2023-04-01T22:21:54.437Z,8.41
2023-04-01T22:24:38.998Z,8.37
2023-04-01T22:27:33.000Z,8.35
2023-04-01T22:30:26.041Z,8.31
2023-04-01T22:33:01.019Z,8.27
2023-04-01T22:35:54.136Z,8.26
2023-04-01T22:38:55.839Z,8.22
2023-04-01T22:42:00.737Z,8.20
2023-04-01T22:45:35.667Z,8.18
2023-04-01T22:48:21.944Z,8.17
2023-04-01T22:51:18.368Z,8.18
2023-04-01T22:54:11.724Z,8.19
2023-04-01T22:56:45.956Z,8.17
2023-04-01T22:59:47.089Z,8.16
2023-04-01T23:02:25.339Z,8.12
2023-04-01T23:04:58.973Z,8.13
2023-04-01T23:07:48.759Z,8.09
2023-04-01T23:10:40.026Z,8.07
2023-04-01T23:13:13.643Z,8.07
2023-04-01T23:15:46.657Z,8.09
2023-04-01T23:18:49.275Z,8.12
2023-04-01T23:21:40.826Z,8.10
2023-04-01T23:24:29.949Z,8.13
2023-04-01T23:27:22.370Z,8.07
2023-04-01T23:29:51.761Z,8.02
2023-04-01T23:32:27.200Z,7.95
2023-04-01T23:35:00.451Z,7.98
2023-04-01T23:37:33.756Z,7.97
2023-04-01T23:40:08.273Z,7.97
2023-04-01T23:42:47.280Z,7.93
2023-04-01T23:45:27.251Z,7.92
2023-04-01T23:48:10.807Z,7.86
2023-04-01T23:50:44.441Z,7.80
2023-04-01T23:53:31.834Z,7.78
2023-04-01T23:56:03.436Z,7.83
2023-04-01T23:58:50.583Z,7.83
